• Join FlightAware (Why Join?)
  • Login
  • US Flag 
07:08AM EDT


 

Airport Tracker/Info


-or-


 

Live Flight TrackerFlight Track Log ✈ JA-801A ✈ 16-Jan-2013 ✈ RJDC / UBJ - RJTT / HND

Flight Track Log - Related Links

Times and Time Zones

All times are in EST time to prevent confusion due to time zone crossing. See the JA-801A flight status page for this flight to view local times or setup timezone preferences in your user account.

Time Position Orientation Groundspeed Altitude Reporting Facility
EST Latitude Longitude Course Direction KTS MPH feet Rate Location/Type
07:43PM 34.0354 131.7419 75° East  Level Estimated
07:44PM 34.0702 131.8966 75° East  Level Estimated
07:45PM 34.1048 132.0514 75° East  Level Estimated
07:46PM 34.1391 132.2064 75° East  Level Estimated
07:47PM 34.1733 132.3615 75° East  Level Estimated
07:48PM 34.2073 132.5167 75° East  Level Estimated
07:49PM 34.2411 132.6720 75° East  Level Estimated
07:49PM 33.7570 132.1570 75° East 470 541 20,500  Level FlightAware
07:49PM 33.7920 132.2940 73° East 487 560 21,600 2,340 Climbing FlightAware
07:50PM 33.8280 132.4360 73° East 512 589 24,600 2,820 Climbing FlightAware
07:51PM 33.8590 132.5610 73° East 528 608 26,100 1,740 Climbing FlightAware
07:52PM 33.8920 132.6940 73° East 560 644 27,100 1,440 Climbing FlightAware
07:52PM 33.9220 132.8160 73° East 578 665 28,200 1,500 Climbing FlightAware
07:53PM 33.9560 132.9560 74° East 593 682 29,300 1,500 Climbing FlightAware
07:54PM 33.9870 133.0830 74° East 607 699 30,400 1,380 Climbing FlightAware
07:54PM 34.0180 133.2080 73° East 624 718 31,200 1,260 Climbing FlightAware
07:55PM 34.0560 133.3640 74° East 640 736 32,200 1,380 Climbing FlightAware
07:56PM 34.0880 133.4990 74° East 647 745 33,200 1,380 Climbing FlightAware
07:57PM 34.1270 133.6600 74° East 655 754 34,200 1,260 Climbing FlightAware
07:57PM 34.1590 133.7980 74° East 660 760 35,000 1,200 Climbing FlightAware
07:58PM 34.1850 133.9080 74° East 664 764 35,600 1,680 Climbing FlightAware
07:58PM 34.2180 134.0470 74° East 658 757 37,000 2,160 Climbing FlightAware
07:59PM 34.2430 134.1690 76° East 640 736 38,500 1,860 Climbing FlightAware
08:00PM 34.2740 134.3300 77° East 632 727 39,700 1,260 Climbing FlightAware
08:01PM 34.3030 134.4750 76° East 633 728 40,300 900 Climbing FlightAware
08:01PM 34.3300 134.6170 77° East 635 731 41,000 480 Climbing FlightAware
08:02PM 34.3580 134.7580 76° East 636 732 41,000  Level FlightAware
08:03PM 34.3860 134.8990 76° East 633 728 41,000  Level FlightAware
08:03PM 34.4100 135.0450 79° East 637 733 41,000  Level FlightAware
08:04PM 34.4350 135.2020 79° East 638 734 41,000  Level FlightAware
08:05PM 34.4590 135.3570 79° East 636 732 41,000  Level FlightAware
08:05PM 34.4780 135.4780 79° East 637 733 41,000  Level FlightAware
08:06PM 34.5030 135.6340 79° East 637 733 41,000  Level FlightAware
08:07PM 34.5250 135.7740 79° East 639 735 41,000  Level FlightAware
08:08PM 34.5500 135.9380 79° East 640 736 41,000  Level FlightAware
08:08PM 34.5740 136.0910 79° East 638 734 41,000  Level FlightAware
08:09PM 34.5950 136.2260 79° East 638 734 41,000  Level FlightAware
08:10PM 34.6120 136.3410 80° East 638 734 41,000  Level FlightAware
08:10PM 34.6410 136.5320 79° East 639 735 41,000  Level FlightAware
08:11PM 34.6610 136.6660 80° East 638 734 41,000  Level FlightAware
08:12PM 34.6830 136.8130 80° East 639 735 41,000  Level FlightAware
08:12PM 34.7010 136.9710 82° East 639 735 41,000  Level FlightAware
08:13PM 34.7060 137.0960 87° East 640 736 41,000  Level FlightAware
08:14PM 34.7080 137.2730 89° East 641 738 41,000 -60 Level FlightAware
08:15PM 34.7100 137.4720 89° East 622 716 40,900 -1,080 Descending FlightAware
08:15PM 34.7110 137.6090 89° East 622 716 39,300 -2,400 Descending FlightAware
08:16PM 34.7030 137.7340 94° East 621 715 37,500 -2,880 Descending FlightAware
08:17PM 34.6460 137.8930 114° Southeast 625 719 35,300 -2,280 Descending FlightAware
08:17PM 34.5770 137.9970 129° Southeast 578 665 34,500 -1,440 Descending FlightAware
08:18PM 34.5080 138.0920 131° Southeast 567 652 33,400 -1,620 Descending FlightAware
08:19PM 34.4320 138.2010 130° Southeast 562 647 32,100 -1,740 Descending FlightAware
08:20PM 34.3730 138.3090 123° Southeast 562 647 31,000 -1,560 Descending FlightAware
08:20PM 34.3330 138.4410 110° East 560 644 29,900 -1,440 Descending FlightAware
08:21PM 34.3010 138.5570 108° East 546 628 29,000 -1,380 Descending FlightAware
08:22PM 34.2750 138.6650 106° East 542 624 28,200 -1,140 Descending FlightAware
08:23PM 34.2490 138.8280 101° East 513 590 27,300 -1,140 Descending FlightAware
08:23PM 34.2330 138.9270 101° East 496 571 26,500 -1,440 Descending FlightAware
08:24PM 34.2170 139.0370 100° East 485 558 25,400 -1,620 Descending FlightAware
08:25PM 34.2330 139.1590 81° East 465 535 24,100 -1,800 Descending FlightAware
08:25PM 34.2660 139.2500 66° East 449 517 22,900 -1,560 Descending FlightAware
08:26PM 34.3150 139.3450 58° Northeast 435 501 21,900 -1,500 Descending FlightAware
08:27PM 34.3560 139.4260 58° Northeast 428 493 20,800 -1,740 Descending FlightAware
08:27PM 34.3980 139.5080 58° Northeast 414 476 19,600 -1,740 Descending FlightAware
08:28PM 34.4430 139.5960 58° Northeast 404 465 18,400 -1,500 Descending FlightAware
08:29PM 34.4820 139.6730 58° Northeast 405 466 17,500 -1,440 Descending FlightAware
08:30PM 34.5270 139.7610 58° Northeast 401 461 16,400 -1,440 Descending FlightAware
08:30PM 34.5560 139.8170 58° Northeast 387 445 15,700 -1,500 Descending FlightAware
08:31PM 34.6010 139.8840 51° Northeast 369 425 14,700 -1,620 Descending FlightAware
08:31PM 34.6480 139.9410 45° Northeast 372 428 13,600 -1,680 Descending FlightAware
08:32PM 34.7030 139.9920 37° Northeast 339 390 12,500 -1,320 Descending FlightAware
08:33PM 34.7640 140.0070 11° North 326 375 11,800 -1,200 Descending FlightAware
08:33PM 34.8230 140.0190 North 310 357 10,800 -1,320 Descending FlightAware
08:34PM 34.8890 140.0340 11° North 296 341 10,000 -960 Descending FlightAware
08:35PM 34.9200 140.0410 10° North 275 316 9,700 -780 Descending FlightAware
08:35PM 34.9410 140.0440 North 273 314 9,500 -840 Descending FlightAware
08:35PM 34.9840 140.0390 355° North 261 300 9,100 -1,140 Descending FlightAware
08:36PM 35.0140 140.0330 351° North 265 305 8,500 -1,920 Descending FlightAware
08:36PM 35.0360 140.0280 349° North 264 304 7,700 -1,200 Descending FlightAware
08:36PM 35.0550 140.0240 350° North 262 302 7,800 -1,200 Climbing FlightAware
08:37PM 35.0780 140.0200 352° North 261 300 7,000 -1,320 Descending FlightAware
08:37PM 35.1160 140.0120 350° North 269 310 6,700 -960 Descending FlightAware
08:38PM 35.1410 140.0070 351° North 264 304 6,200 -1,560 Descending FlightAware
08:38PM 35.1780 139.9990 350° North 268 308 5,400 -960 Descending FlightAware
08:39PM 35.2190 139.9910 351° North 264 304 5,200 -300 Descending FlightAware
08:39PM 35.2250 139.9900 352° North 264 304 5,200  Level FlightAware
08:39PM 35.2600 139.9800 347° North 243 280 5,200  Level FlightAware
08:40PM 35.2920 139.9590 332° Northwest 209 241 5,200  Level FlightAware
08:40PM 35.3120 139.9440 329° Northwest 191 220 5,200  Level FlightAware
08:41PM 35.3300 139.9320 331° Northwest 192 221 5,200 -1,140 Level FlightAware
08:41PM 35.3540 139.9150 330° Northwest 195 224 4,200 -1,620 Descending FlightAware
08:42PM 35.3780 139.8980 330° Northwest 192 221 3,600 -720 Descending FlightAware
08:42PM 35.4000 139.8830 331° Northwest 191 220 3,500 -1,140 Descending FlightAware
08:43PM 35.4200 139.8680 329° Northwest 188 216 2,600 -1,200 Descending FlightAware
08:43PM 35.4310 139.8600 329° Northwest 182 209 2,700 -1,080 Climbing FlightAware
08:43PM 35.4490 139.8480 331° Northwest 172 198 1,900 -960 Descending FlightAware
08:44PM 35.4660 139.8360 330° Northwest 161 185 1,900 -900 Level FlightAware
08:44PM 35.4870 139.8210 330° Northwest 141 162 1,000 -1,200 Descending FlightAware
08:45PM 35.4990 139.8120 329° Northwest 128 147 700 -720 Descending FlightAware
08:45PM 35.5120 139.8030 331° Northwest 129 148 400 -600 Descending FlightAware
08:46PM 35.5290 139.7910 330° Northwest 130 150 100 -540 Descending FlightAware
08:48PM 35.5523 139.7797 338° Northwest  Level Estimated
08:49PM 35.5523 139.7797 122° Southeast  Level Estimated